sensor_id;sensor_type;location;lat;lon;timestamp;pressure;altitude;pressure_sealevel;temperature;humidity
66398;BME280;54877;51.504;3.894;2023-08-17T00:01:59;102093.47;;;22.13;60.68
66398;BME280;54877;51.504;3.894;2023-08-17T00:04:25;102086.75;;;22.18;60.63
66398;BME280;54877;51.504;3.894;2023-08-17T00:06:50;102086.75;;;22.18;60.54
66398;BME280;54877;51.504;3.894;2023-08-17T00:09:16;102089.94;;;22.23;60.22
66398;BME280;54877;51.504;3.894;2023-08-17T00:11:41;102091.66;;;22.24;59.75
66398;BME280;54877;51.504;3.894;2023-08-17T00:14:06;102093.75;;;22.21;59.75
66398;BME280;54877;51.504;3.894;2023-08-17T00:16:32;102096.31;;;22.11;60.04
66398;BME280;54877;51.504;3.894;2023-08-17T00:18:57;102091.41;;;22.05;60.01
66398;BME280;54877;51.504;3.894;2023-08-17T00:21:23;102093.97;;;22.07;59.65
66398;BME280;54877;51.504;3.894;2023-08-17T00:23:48;102089.91;;;22.01;59.63
66398;BME280;54877;51.504;3.894;2023-08-17T00:26:14;102086.09;;;22.04;59.45
66398;BME280;54877;51.504;3.894;2023-08-17T00:28:39;102086.47;;;21.99;59.00
66398;BME280;54877;51.504;3.894;2023-08-17T00:31:05;102087.56;;;21.97;58.96
66398;BME280;54877;51.504;3.894;2023-08-17T00:33:30;102084.00;;;21.96;58.54
66398;BME280;54877;51.504;3.894;2023-08-17T00:35:55;102087.94;;;21.92;58.40
66398;BME280;54877;51.504;3.894;2023-08-17T00:38:21;102086.59;;;21.98;58.36
66398;BME280;54877;51.504;3.894;2023-08-17T00:40:46;102093.19;;;21.94;58.24
66398;BME280;54877;51.504;3.894;2023-08-17T00:43:12;102088.03;;;21.91;58.59
66398;BME280;54877;51.504;3.894;2023-08-17T00:45:38;102087.72;;;21.95;58.33
66398;BME280;54877;51.504;3.894;2023-08-17T00:48:04;102090.88;;;21.89;58.31
66398;BME280;54877;51.504;3.894;2023-08-17T00:50:32;102099.50;;;21.82;58.37
66398;BME280;54877;51.504;3.894;2023-08-17T00:52:59;102089.81;;;21.79;58.15
66398;BME280;54877;51.504;3.894;2023-08-17T00:55:26;102096.47;;;21.86;58.08
66398;BME280;54877;51.504;3.894;2023-08-17T00:57:52;102085.25;;;21.92;57.80
66398;BME280;54877;51.504;3.894;2023-08-17T01:00:18;102094.16;;;21.93;57.90
66398;BME280;54877;51.504;3.894;2023-08-17T01:02:45;102102.19;;;21.71;58.31
66398;BME280;54877;51.504;3.894;2023-08-17T01:05:12;102102.09;;;21.83;58.32
66398;BME280;54877;51.504;3.894;2023-08-17T01:07:37;102096.41;;;21.64;58.69
66398;BME280;54877;51.504;3.894;2023-08-17T01:10:03;102099.13;;;21.75;58.59
66398;BME280;54877;51.504;3.894;2023-08-17T01:13:16;102093.47;;;21.67;58.84
66398;BME280;54877;51.504;3.894;2023-08-17T01:15:16;102096.44;;;21.75;58.64
66398;BME280;54877;51.504;3.894;2023-08-17T01:17:47;102093.34;;;21.68;58.75
66398;BME280;54877;51.504;3.894;2023-08-17T01:20:16;102092.88;;;21.75;58.61
66398;BME280;54877;51.504;3.894;2023-08-17T01:22:44;102087.22;;;21.66;58.71
66398;BME280;54877;51.504;3.894;2023-08-17T01:25:11;102084.75;;;21.63;58.86
66398;BME280;54877;51.504;3.894;2023-08-17T01:27:39;102081.09;;;21.41;59.28
66398;BME280;54877;51.504;3.894;2023-08-17T01:30:06;102082.59;;;21.45;59.12
66398;BME280;54877;51.504;3.894;2023-08-17T01:32:40;102080.88;;;21.44;59.25
66398;BME280;54877;51.504;3.894;2023-08-17T01:35:18;102081.84;;;21.43;59.18
66398;BME280;54877;51.504;3.894;2023-08-17T09:18:44;102025.59;;;24.00;53.72
66398;BME280;54877;51.504;3.894;2023-08-17T09:21:19;102026.09;;;24.05;53.81
66398;BME280;54877;51.504;3.894;2023-08-17T09:23:50;102024.03;;;24.18;53.52
66398;BME280;54877;51.504;3.894;2023-08-17T09:26:16;102027.38;;;24.31;53.79
66398;BME280;54877;51.504;3.894;2023-08-17T09:28:44;102020.81;;;24.24;53.47
66398;BME280;54877;51.504;3.894;2023-08-17T09:31:10;102022.44;;;24.46;53.84
66398;BME280;54877;51.504;3.894;2023-08-17T09:33:36;102012.97;;;24.71;53.42
66398;BME280;54877;51.504;3.894;2023-08-17T09:36:02;102016.56;;;24.81;53.18
66398;BME280;54877;51.504;3.894;2023-08-17T09:38:28;102020.19;;;24.91;52.87
66398;BME280;54877;51.504;3.894;2023-08-17T09:40:53;102007.06;;;24.96;52.61
66398;BME280;54877;51.504;3.894;2023-08-17T09:43:19;102014.91;;;24.99;52.04
66398;BME280;54877;51.504;3.894;2023-08-17T09:45:49;102011.63;;;25.05;52.07
66398;BME280;54877;51.504;3.894;2023-08-17T09:48:16;102010.19;;;25.01;52.04
66398;BME280;54877;51.504;3.894;2023-08-17T09:50:42;102009.06;;;25.13;51.79
66398;BME280;54877;51.504;3.894;2023-08-17T09:53:12;102012.19;;;24.99;51.87
66398;BME280;54877;51.504;3.894;2023-08-17T09:55:39;102015.63;;;25.01;52.04
66398;BME280;54877;51.504;3.894;2023-08-17T09:58:06;102008.31;;;24.92;52.24
66398;BME280;54877;51.504;3.894;2023-08-17T10:00:33;102007.03;;;24.86;52.39
66398;BME280;54877;51.504;3.894;2023-08-17T10:03:00;101999.19;;;24.83;52.64
66398;BME280;54877;51.504;3.894;2023-08-17T10:05:28;102001.59;;;24.77;52.45
66398;BME280;54877;51.504;3.894;2023-08-17T10:07:57;102012.09;;;24.61;53.17
66398;BME280;54877;51.504;3.894;2023-08-17T10:10:25;102006.97;;;24.58;53.62
66398;BME280;54877;51.504;3.894;2023-08-17T10:12:54;102007.25;;;24.64;53.29
66398;BME280;54877;51.504;3.894;2023-08-17T10:15:23;102000.97;;;24.64;53.34
66398;BME280;54877;51.504;3.894;2023-08-17T10:17:55;101996.00;;;24.78;53.49
66398;BME280;54877;51.504;3.894;2023-08-17T10:20:28;102007.06;;;24.96;53.38
66398;BME280;54877;51.504;3.894;2023-08-17T10:23:01;101997.34;;;24.84;52.97
66398;BME280;54877;51.504;3.894;2023-08-17T10:25:35;102006.16;;;24.86;52.77
66398;BME280;54877;51.504;3.894;2023-08-17T10:28:03;102005.91;;;24.89;53.21
66398;BME280;54877;51.504;3.894;2023-08-17T10:30:29;102011.94;;;25.02;52.52
66398;BME280;54877;51.504;3.894;2023-08-17T10:32:55;102010.19;;;25.01;52.27
66398;BME280;54877;51.504;3.894;2023-08-17T10:35:21;102010.75;;;24.95;52.31
66398;BME280;54877;51.504;3.894;2023-08-17T10:37:47;102004.47;;;24.85;52.65
66398;BME280;54877;51.504;3.894;2023-08-17T10:40:13;102002.75;;;24.84;52.71
66398;BME280;54877;51.504;3.894;2023-08-17T10:42:39;101997.94;;;25.06;52.53
66398;BME280;54877;51.504;3.894;2023-08-17T10:47:48;101995.06;;;25.08;53.07
66398;BME280;54877;51.504;3.894;2023-08-17T10:50:22;101997.22;;;25.14;52.71
66398;BME280;54877;51.504;3.894;2023-08-17T10:52:49;102000.66;;;25.26;53.10
66398;BME280;54877;51.504;3.894;2023-08-17T10:55:16;101999.66;;;25.46;52.34
66398;BME280;54877;51.504;3.894;2023-08-17T10:57:44;101994.78;;;25.30;51.67
66398;BME280;54877;51.504;3.894;2023-08-17T11:00:16;102003.94;;;25.29;51.75
66398;BME280;54877;51.504;3.894;2023-08-17T11:02:45;101998.78;;;25.17;51.99
66398;BME280;54877;51.504;3.894;2023-08-17T11:13:31;102000.78;;;25.05;52.70
66398;BME280;54877;51.504;3.894;2023-08-17T11:15:59;101998.94;;;24.96;53.01
66398;BME280;54877;51.504;3.894;2023-08-17T11:18:25;101999.22;;;24.93;52.41
66398;BME280;54877;51.504;3.894;2023-08-17T11:20:51;101991.97;;;25.13;52.92
66398;BME280;54877;51.504;3.894;2023-08-17T11:23:18;101990.25;;;25.21;52.67
66398;BME280;54877;51.504;3.894;2023-08-17T11:25:43;101988.25;;;25.23;52.68
66398;BME280;54877;51.504;3.894;2023-08-17T11:28:09;101977.97;;;25.17;52.55
66398;BME280;54877;51.504;3.894;2023-08-17T11:30:35;101994.50;;;25.33;52.81
66398;BME280;54877;51.504;3.894;2023-08-17T11:33:04;101989.53;;;25.29;52.72
66398;BME280;54877;51.504;3.894;2023-08-17T11:35:30;101982.81;;;25.23;52.81
66398;BME280;54877;51.504;3.894;2023-08-17T11:37:55;101986.53;;;25.13;52.97
66398;BME280;54877;51.504;3.894;2023-08-17T11:40:21;101990.66;;;25.26;53.00
66398;BME280;54877;51.504;3.894;2023-08-17T11:42:46;101985.63;;;25.41;52.37
66398;BME280;54877;51.504;3.894;2023-08-17T11:45:12;101981.69;;;25.26;52.94
66398;BME280;54877;51.504;3.894;2023-08-17T11:47:41;101975.94;;;25.38;52.76
66398;BME280;54877;51.504;3.894;2023-08-17T11:50:11;101979.09;;;25.43;52.55
66398;BME280;54877;51.504;3.894;2023-08-17T11:52:37;101981.53;;;25.65;52.16
66398;BME280;54877;51.504;3.894;2023-08-17T11:55:03;101985.09;;;25.56;52.16
66398;BME280;54877;51.504;3.894;2023-08-17T11:57:30;101982.38;;;25.56;52.60
66398;BME280;54877;51.504;3.894;2023-08-17T11:59:57;101977.53;;;25.50;52.62
66398;BME280;54877;51.504;3.894;2023-08-17T12:02:24;101975.66;;;25.60;52.05
66398;BME280;54877;51.504;3.894;2023-08-17T12:04:51;101986.22;;;25.44;52.48
66398;BME280;54877;51.504;3.894;2023-08-17T12:07:17;101974.97;;;25.58;52.54
66398;BME280;54877;51.504;3.894;2023-08-17T12:09:44;101966.97;;;25.47;52.46
66398;BME280;54877;51.504;3.894;2023-08-17T12:12:10;101977.22;;;25.63;52.76
66398;BME280;54877;51.504;3.894;2023-08-17T12:14:36;101968.72;;;25.48;52.65
66398;BME280;54877;51.504;3.894;2023-08-17T12:17:02;101968.53;;;25.50;52.76
66398;BME280;54877;51.504;3.894;2023-08-17T12:19:28;101961.94;;;25.72;52.82
66398;BME280;54877;51.504;3.894;2023-08-17T12:21:54;101964.16;;;25.49;52.68
66398;BME280;54877;51.504;3.894;2023-08-17T12:24:23;101968.84;;;25.56;52.78
66398;BME280;54877;51.504;3.894;2023-08-17T12:26:48;101964.53;;;25.63;52.40
66398;BME280;54877;51.504;3.894;2023-08-17T12:29:14;101966.81;;;25.58;52.80
66398;BME280;54877;51.504;3.894;2023-08-17T12:31:39;101969.41;;;25.60;53.06
66398;BME280;54877;51.504;3.894;2023-08-17T12:34:05;101967.66;;;25.68;53.03
66398;BME280;54877;51.504;3.894;2023-08-17T12:36:34;101972.59;;;25.83;52.87
66398;BME280;54877;51.504;3.894;2023-08-17T12:39:03;101970.84;;;25.54;52.91
66398;BME280;54877;51.504;3.894;2023-08-17T12:41:30;101978.78;;;25.46;53.16
66398;BME280;54877;51.504;3.894;2023-08-17T12:43:56;101970.84;;;25.26;53.55
66398;BME280;54877;51.504;3.894;2023-08-17T12:46:24;101969.84;;;25.07;54.09
66398;BME280;54877;51.504;3.894;2023-08-17T12:48:50;101969.97;;;25.06;54.49
66398;BME280;54877;51.504;3.894;2023-08-17T12:51:15;101974.97;;;25.10;54.76
66398;BME280;54877;51.504;3.894;2023-08-17T12:53:41;101974.66;;;24.94;55.00
66398;BME280;54877;51.504;3.894;2023-08-17T12:56:07;101970.81;;;24.97;54.74
66398;BME280;54877;51.504;3.894;2023-08-17T12:58:32;101975.97;;;24.90;54.94
66398;BME280;54877;51.504;3.894;2023-08-17T13:00:57;101978.81;;;24.79;55.03
66398;BME280;54877;51.504;3.894;2023-08-17T13:03:23;101978.53;;;24.92;54.80
66398;BME280;54877;51.504;3.894;2023-08-17T13:05:48;101975.81;;;24.82;54.89
66398;BME280;54877;51.504;3.894;2023-08-17T13:08:14;101972.25;;;24.82;55.05
66398;BME280;54877;51.504;3.894;2023-08-17T13:10:40;101960.28;;;24.84;55.06
66398;BME280;54877;51.504;3.894;2023-08-17T13:13:06;101957.44;;;24.95;54.75
66398;BME280;54877;51.504;3.894;2023-08-17T13:15:32;101961.41;;;24.82;55.15
66398;BME280;54877;51.504;3.894;2023-08-17T13:17:58;101961.13;;;24.85;55.23
66398;BME280;54877;51.504;3.894;2023-08-17T13:20:24;101964.56;;;24.87;54.95
66398;BME280;54877;51.504;3.894;2023-08-17T13:22:49;101961.50;;;24.71;55.16
66398;BME280;54877;51.504;3.894;2023-08-17T13:25:15;101970.41;;;24.82;55.17
66398;BME280;54877;51.504;3.894;2023-08-17T13:27:40;101965.91;;;24.72;55.38
66398;BME280;54877;51.504;3.894;2023-08-17T13:30:06;101959.69;;;24.81;55.48
66398;BME280;54877;51.504;3.894;2023-08-17T13:32:32;101968.25;;;24.86;55.30
66398;BME280;54877;51.504;3.894;2023-08-17T13:34:57;101966.78;;;24.72;55.15
66398;BME280;54877;51.504;3.894;2023-08-17T13:37:23;101966.19;;;24.59;55.69
66398;BME280;54877;51.504;3.894;2023-08-17T13:39:49;101959.47;;;24.53;56.04
66398;BME280;54877;51.504;3.894;2023-08-17T13:42:14;101961.03;;;24.56;56.06
66398;BME280;54877;51.504;3.894;2023-08-17T13:44:39;101953.66;;;24.68;55.78
66398;BME280;54877;51.504;3.894;2023-08-17T13:47:05;101958.09;;;24.69;55.81
66398;BME280;54877;51.504;3.894;2023-08-17T13:49:30;101958.53;;;24.74;56.29
66398;BME280;54877;51.504;3.894;2023-08-17T13:51:56;101945.97;;;24.73;56.09
66398;BME280;54877;51.504;3.894;2023-08-17T13:54:21;101950.56;;;24.82;55.76
66398;BME280;54877;51.504;3.894;2023-08-17T13:56:50;101957.38;;;24.76;55.56
66398;BME280;54877;51.504;3.894;2023-08-17T13:59:16;101952.81;;;24.77;56.11
66398;BME280;54877;51.504;3.894;2023-08-17T14:01:41;101956.84;;;24.82;55.63
66398;BME280;54877;51.504;3.894;2023-08-17T14:04:07;101956.06;;;24.61;55.81
66398;BME280;54877;51.504;3.894;2023-08-17T14:06:37;101944.22;;;24.52;56.06
66398;BME280;54877;51.504;3.894;2023-08-17T14:09:03;101956.16;;;24.40;56.32
66398;BME280;54877;51.504;3.894;2023-08-17T14:11:29;101953.63;;;24.48;56.26
66398;BME280;54877;51.504;3.894;2023-08-17T14:13:55;101948.22;;;24.48;56.47
66398;BME280;54877;51.504;3.894;2023-08-17T14:16:20;101961.16;;;24.35;56.86
66398;BME280;54877;51.504;3.894;2023-08-17T14:18:46;101957.25;;;24.28;57.07
66398;BME280;54877;51.504;3.894;2023-08-17T14:21:11;101952.13;;;24.25;57.39
66398;BME280;54877;51.504;3.894;2023-08-17T14:23:37;101946.88;;;24.33;57.55
66398;BME280;54877;51.504;3.894;2023-08-17T14:26:04;101946.31;;;24.39;57.58
66398;BME280;54877;51.504;3.894;2023-08-17T14:28:29;101942.19;;;24.35;57.46
66398;BME280;54877;51.504;3.894;2023-08-17T14:30:54;101941.63;;;24.41;57.33
66398;BME280;54877;51.504;3.894;2023-08-17T14:33:20;101930.81;;;24.51;57.33
66398;BME280;54877;51.504;3.894;2023-08-17T14:35:45;101931.41;;;24.54;57.27
66398;BME280;54877;51.504;3.894;2023-08-17T14:38:11;101927.69;;;24.55;57.24
66398;BME280;54877;51.504;3.894;2023-08-17T14:40:47;101931.56;;;24.63;57.28
66398;BME280;54877;51.504;3.894;2023-08-17T14:43:14;101931.28;;;24.66;57.06
66398;BME280;54877;51.504;3.894;2023-08-17T14:45:40;101918.00;;;24.72;56.96
66398;BME280;54877;51.504;3.894;2023-08-17T14:48:06;101933.13;;;24.75;56.76
66398;BME280;54877;51.504;3.894;2023-08-17T14:50:32;101920.28;;;24.67;56.63
66398;BME280;54877;51.504;3.894;2023-08-17T14:53:01;101927.44;;;24.68;56.33
66398;BME280;54877;51.504;3.894;2023-08-17T14:55:31;101919.59;;;24.75;56.10
66398;BME280;54877;51.504;3.894;2023-08-17T14:57:56;101918.31;;;24.60;56.12
66398;BME280;54877;51.504;3.894;2023-08-17T15:00:23;101907.19;;;24.63;56.31
66398;BME280;54877;51.504;3.894;2023-08-17T15:02:49;101911.75;;;24.62;56.44
66398;BME280;54877;51.504;3.894;2023-08-17T15:05:14;101904.34;;;24.54;56.58
66398;BME280;54877;51.504;3.894;2023-08-17T15:07:40;101899.91;;;24.53;56.89
66398;BME280;54877;51.504;3.894;2023-08-17T15:10:06;101899.06;;;24.63;56.30
66398;BME280;54877;51.504;3.894;2023-08-17T15:12:31;101888.66;;;24.68;56.48
66398;BME280;54877;51.504;3.894;2023-08-17T15:14:56;101894.94;;;24.68;56.41
66398;BME280;54877;51.504;3.894;2023-08-17T15:17:22;101890.53;;;24.77;56.72
66398;BME280;54877;51.504;3.894;2023-08-17T15:19:47;101888.28;;;24.82;56.46
66398;BME280;54877;51.504;3.894;2023-08-17T15:22:12;101890.97;;;24.82;56.27
66398;BME280;54877;51.504;3.894;2023-08-17T15:24:38;101883.81;;;24.71;56.53
66398;BME280;54877;51.504;3.894;2023-08-17T15:27:03;101884.66;;;24.72;56.37
66398;BME280;54877;51.504;3.894;2023-08-17T15:29:29;101880.13;;;24.63;56.73
66398;BME280;54877;51.504;3.894;2023-08-17T15:31:54;101890.66;;;24.66;57.04
66398;BME280;54877;51.504;3.894;2023-08-17T15:34:19;101878.25;;;24.73;56.73
66398;BME280;54877;51.504;3.894;2023-08-17T15:36:45;101880.97;;;24.73;56.58
66398;BME280;54877;51.504;3.894;2023-08-17T15:39:10;101891.06;;;24.51;56.84
66398;BME280;54877;51.504;3.894;2023-08-17T15:41:37;101882.38;;;24.38;57.60
66398;BME280;54877;51.504;3.894;2023-08-17T15:44:02;101874.69;;;24.43;57.33
66398;BME280;54877;51.504;3.894;2023-08-17T15:46:28;101876.38;;;24.44;57.51
66398;BME280;54877;51.504;3.894;2023-08-17T15:48:53;101882.19;;;24.30;57.73
66398;BME280;54877;51.504;3.894;2023-08-17T15:51:21;101875.50;;;24.34;57.93
66398;BME280;54877;51.504;3.894;2023-08-17T15:53:46;101874.06;;;24.30;58.17
66398;BME280;54877;51.504;3.894;2023-08-17T15:56:11;101871.78;;;24.26;57.92
66398;BME280;54877;51.504;3.894;2023-08-17T15:58:37;101870.94;;;24.25;58.13
66398;BME280;54877;51.504;3.894;2023-08-17T16:01:02;101868.22;;;24.25;57.97
66398;BME280;54877;51.504;3.894;2023-08-17T16:03:28;101877.78;;;24.29;57.99
66398;BME280;54877;51.504;3.894;2023-08-17T16:05:53;101866.38;;;24.16;58.33
66398;BME280;54877;51.504;3.894;2023-08-17T16:08:18;101860.97;;;24.16;58.03
66398;BME280;54877;51.504;3.894;2023-08-17T16:10:44;101865.44;;;24.06;58.47
66398;BME280;54877;51.504;3.894;2023-08-17T16:13:09;101862.84;;;23.95;58.77
66398;BME280;54877;51.504;3.894;2023-08-17T16:15:34;101857.28;;;23.87;58.89
66398;BME280;54877;51.504;3.894;2023-08-17T16:18:00;101845.91;;;23.93;59.10
66398;BME280;54877;51.504;3.894;2023-08-17T16:20:25;101850.88;;;23.97;58.87
66398;BME280;54877;51.504;3.894;2023-08-17T16:22:54;101848.88;;;23.90;59.21
66398;BME280;54877;51.504;3.894;2023-08-17T16:25:19;101849.75;;;24.00;58.89
66398;BME280;54877;51.504;3.894;2023-08-17T16:27:45;101844.19;;;23.92;59.01
66398;BME280;54877;51.504;3.894;2023-08-17T16:30:10;101846.88;;;23.92;58.91
66398;BME280;54877;51.504;3.894;2023-08-17T16:32:36;101840.50;;;23.93;59.22
66398;BME280;54877;51.504;3.894;2023-08-17T16:35:01;101839.50;;;23.94;59.17
66398;BME280;54877;51.504;3.894;2023-08-17T16:37:27;101832.38;;;23.93;58.98
66398;BME280;54877;51.504;3.894;2023-08-17T16:39:52;101834.03;;;23.75;59.32
66398;BME280;54877;51.504;3.894;2023-08-17T16:42:17;101829.78;;;23.82;59.42
66398;BME280;54877;51.504;3.894;2023-08-17T16:44:43;101824.16;;;23.64;59.39
66398;BME280;54877;51.504;3.894;2023-08-17T16:47:09;101815.66;;;23.69;59.49
66398;BME280;54877;51.504;3.894;2023-08-17T16:49:34;101820.63;;;23.64;59.66
66398;BME280;54877;51.504;3.894;2023-08-17T16:52:01;101821.44;;;23.64;59.68
66398;BME280;54877;51.504;3.894;2023-08-17T16:54:26;101820.91;;;23.61;59.82
66398;BME280;54877;51.504;3.894;2023-08-17T16:56:52;101825.13;;;23.54;60.40
66398;BME280;54877;51.504;3.894;2023-08-17T16:59:17;101822.59;;;23.62;59.75
66398;BME280;54877;51.504;3.894;2023-08-17T17:01:42;101831.03;;;23.68;59.74
66398;BME280;54877;51.504;3.894;2023-08-17T17:04:08;101827.19;;;23.71;59.67
66398;BME280;54877;51.504;3.894;2023-08-17T17:06:33;101823.19;;;23.65;60.00
66398;BME280;54877;51.504;3.894;2023-08-17T17:08:58;101825.38;;;23.51;59.96
66398;BME280;54877;51.504;3.894;2023-08-17T17:11:24;101823.00;;;23.57;60.02
66398;BME280;54877;51.504;3.894;2023-08-17T17:13:49;101826.69;;;23.56;59.88
66398;BME280;54877;51.504;3.894;2023-08-17T17:16:15;101834.63;;;23.48;60.08
66398;BME280;54877;51.504;3.894;2023-08-17T17:18:40;101831.34;;;23.45;60.32
66398;BME280;54877;51.504;3.894;2023-08-17T17:21:06;101832.78;;;23.49;60.09
66398;BME280;54877;51.504;3.894;2023-08-17T17:23:31;101825.72;;;23.57;60.06
66398;BME280;54877;51.504;3.894;2023-08-17T17:25:57;101829.81;;;23.52;60.04
66398;BME280;54877;51.504;3.894;2023-08-17T17:28:22;101833.19;;;23.44;60.29
66398;BME280;54877;51.504;3.894;2023-08-17T17:30:48;101838.44;;;23.46;60.19
66398;BME280;54877;51.504;3.894;2023-08-17T17:33:13;101838.72;;;23.43;60.43
66398;BME280;54877;51.504;3.894;2023-08-17T17:35:39;101844.41;;;23.39;60.55
66398;BME280;54877;51.504;3.894;2023-08-17T17:38:04;101841.22;;;23.34;60.77
66398;BME280;54877;51.504;3.894;2023-08-17T17:40:29;101845.44;;;23.27;60.91
66398;BME280;54877;51.504;3.894;2023-08-17T17:42:54;101833.59;;;23.39;60.56
66398;BME280;54877;51.504;3.894;2023-08-17T17:45:20;101836.28;;;23.39;60.58
66398;BME280;54877;51.504;3.894;2023-08-17T17:47:45;101828.56;;;23.35;60.45
66398;BME280;54877;51.504;3.894;2023-08-17T17:50:11;101833.31;;;23.43;60.56
66398;BME280;54877;51.504;3.894;2023-08-17T17:52:36;101834.78;;;23.47;60.43
66398;BME280;54877;51.504;3.894;2023-08-17T17:55:02;101836.06;;;23.31;60.86
66398;BME280;54877;51.504;3.894;2023-08-17T17:57:27;101833.81;;;23.36;60.79
66398;BME280;54877;51.504;3.894;2023-08-17T17:59:53;101840.97;;;23.37;60.81
66398;BME280;54877;51.504;3.894;2023-08-17T18:02:23;101846.28;;;23.39;60.78
66398;BME280;54877;51.504;3.894;2023-08-17T18:04:50;101840.72;;;23.41;60.87
66398;BME280;54877;51.504;3.894;2023-08-17T18:07:16;101838.44;;;23.46;60.80
66398;BME280;54877;51.504;3.894;2023-08-17T18:09:42;101839.91;;;23.50;60.92
66398;BME280;54877;51.504;3.894;2023-08-17T18:12:07;101837.28;;;23.38;60.85
66398;BME280;54877;51.504;3.894;2023-08-17T18:14:33;101838.28;;;23.37;60.83
66398;BME280;54877;51.504;3.894;2023-08-17T18:16:58;101833.31;;;23.43;60.85
66398;BME280;54877;51.504;3.894;2023-08-17T18:19:24;101838.00;;;23.41;60.72
66398;BME280;54877;51.504;3.894;2023-08-17T18:21:49;101846.63;;;23.34;60.78
66398;BME280;54877;51.504;3.894;2023-08-17T18:24:14;101839.78;;;23.30;60.96
66398;BME280;54877;51.504;3.894;2023-08-17T18:26:40;101847.16;;;23.28;60.92
66398;BME280;54877;51.504;3.894;2023-08-17T18:29:05;101841.88;;;23.06;61.42
66398;BME280;54877;51.504;3.894;2023-08-17T18:31:30;101848.22;;;23.16;61.43
66398;BME280;54877;51.504;3.894;2023-08-17T18:33:56;101851.53;;;22.99;61.83
66398;BME280;54877;51.504;3.894;2023-08-17T18:36:21;101852.69;;;23.06;61.54
66398;BME280;54877;51.504;3.894;2023-08-17T18:38:47;101854.69;;;23.04;61.38
66398;BME280;54877;51.504;3.894;2023-08-17T18:41:12;101855.88;;;23.11;61.37
66398;BME280;54877;51.504;3.894;2023-08-17T18:43:38;101861.28;;;23.11;61.37
66398;BME280;54877;51.504;3.894;2023-08-17T18:46:04;101859.56;;;23.10;61.62
66398;BME280;54877;51.504;3.894;2023-08-17T18:48:30;101862.72;;;23.15;61.56
66398;BME280;54877;51.504;3.894;2023-08-17T18:50:56;101862.19;;;23.21;61.41
66398;BME280;54877;51.504;3.894;2023-08-17T18:53:22;101862.44;;;23.18;61.31
66398;BME280;54877;51.504;3.894;2023-08-17T18:55:48;101862.25;;;23.10;61.74
66398;BME280;54877;51.504;3.894;2023-08-17T18:58:14;101867.53;;;23.12;61.90
66398;BME280;54877;51.504;3.894;2023-08-17T19:00:42;101873.47;;;23.06;62.10
66398;BME280;54877;51.504;3.894;2023-08-17T19:03:08;101879.50;;;22.98;62.12
66398;BME280;54877;51.504;3.894;2023-08-17T19:05:33;101881.94;;;23.01;62.26
66398;BME280;54877;51.504;3.894;2023-08-17T19:07:59;101884.66;;;23.01;62.15
66398;BME280;54877;51.504;3.894;2023-08-17T19:10:25;101883.00;;;22.89;62.38
66398;BME280;54877;51.504;3.894;2023-08-17T19:12:51;101884.97;;;22.87;62.82
66398;BME280;54877;51.504;3.894;2023-08-17T19:15:17;101884.72;;;22.90;62.70
66398;BME280;54877;51.504;3.894;2023-08-17T19:17:42;101898.97;;;22.92;62.73
66398;BME280;54877;51.504;3.894;2023-08-17T19:20:08;101899.78;;;22.93;62.48
66398;BME280;54877;51.504;3.894;2023-08-17T19:22:35;101897.75;;;22.85;62.95
66398;BME280;54877;51.504;3.894;2023-08-17T19:25:01;101899.72;;;22.83;62.83
66398;BME280;54877;51.504;3.894;2023-08-17T19:27:27;101898.00;;;22.82;63.17
66398;BME280;54877;51.504;3.894;2023-08-17T19:29:53;101905.38;;;22.80;63.21
66398;BME280;54877;51.504;3.894;2023-08-17T19:32:18;101906.09;;;22.82;63.32
66398;BME280;54877;51.504;3.894;2023-08-17T19:34:44;101907.56;;;22.86;63.13
66398;BME280;54877;51.504;3.894;2023-08-17T19:37:09;101903.16;;;22.85;63.22
66398;BME280;54877;51.504;3.894;2023-08-17T19:39:35;101917.81;;;22.71;63.59
66398;BME280;54877;51.504;3.894;2023-08-17T19:42:01;101896.81;;;22.75;63.62
66398;BME280;54877;51.504;3.894;2023-08-17T19:44:27;101898.50;;;22.76;63.70
66398;BME280;54877;51.504;3.894;2023-08-17T19:46:53;101903.44;;;22.71;63.79
66398;BME280;54877;51.504;3.894;2023-08-17T19:49:20;101905.28;;;22.70;64.17
66398;BME280;54877;51.504;3.894;2023-08-17T19:51:46;101910.69;;;22.70;64.10
66398;BME280;54877;51.504;3.894;2023-08-17T19:54:11;101914.97;;;22.73;64.07
66398;BME280;54877;51.504;3.894;2023-08-17T19:56:37;101916.34;;;22.67;64.33
66398;BME280;54877;51.504;3.894;2023-08-17T19:59:03;101912.16;;;22.74;64.16
66398;BME280;54877;51.504;3.894;2023-08-17T20:01:29;101918.78;;;22.59;64.48
66398;BME280;54877;51.504;3.894;2023-08-17T20:03:58;101909.34;;;22.65;64.71
66398;BME280;54877;51.504;3.894;2023-08-17T20:06:26;101906.66;;;22.65;64.66
66398;BME280;54877;51.504;3.894;2023-08-17T20:08:53;101915.09;;;22.71;64.38
66398;BME280;54877;51.504;3.894;2023-08-17T20:11:18;101915.72;;;22.75;64.28
66398;BME280;54877;51.504;3.894;2023-08-17T20:13:44;101916.09;;;22.70;64.53
66398;BME280;54877;51.504;3.894;2023-08-17T20:16:10;101914.97;;;22.73;64.45
66398;BME280;54877;51.504;3.894;2023-08-17T20:18:36;101915.09;;;22.71;64.31
66398;BME280;54877;51.504;3.894;2023-08-17T20:21:01;101924.94;;;22.72;64.30
66398;BME280;54877;51.504;3.894;2023-08-17T20:23:28;101914.63;;;22.66;64.82
66398;BME280;54877;51.504;3.894;2023-08-17T20:25:54;101912.81;;;22.67;64.52
66398;BME280;54877;51.504;3.894;2023-08-17T20:28:21;101914.25;;;22.60;64.71
66398;BME280;54877;51.504;3.894;2023-08-17T20:30:46;101900.03;;;22.58;64.75
66398;BME280;54877;51.504;3.894;2023-08-17T20:33:13;101904.56;;;22.57;64.96
66398;BME280;54877;51.504;3.894;2023-08-17T20:35:39;101901.25;;;22.65;64.70
66398;BME280;54877;51.504;3.894;2023-08-17T20:38:08;101900.75;;;22.60;64.82